createdAt,value
2024-05-09T00:00:54.111Z,26.32
2024-05-09T00:01:53.997Z,26.21
2024-05-09T00:02:53.944Z,26.48
2024-05-09T00:03:53.940Z,26.10
2024-05-09T00:04:53.987Z,26.37
2024-05-09T00:05:53.963Z,26.43
2024-05-09T00:06:53.903Z,26.32
2024-05-09T00:07:53.910Z,26.53
2024-05-09T00:08:53.864Z,26.53
2024-05-09T00:09:53.846Z,26.59
2024-05-09T00:10:53.921Z,26.05
2024-05-09T00:11:53.940Z,26.43
2024-05-09T00:12:53.833Z,26.37
2024-05-09T00:13:53.864Z,26.37
2024-05-09T00:14:53.771Z,26.37
2024-05-09T00:15:53.792Z,26.80
2024-05-09T00:16:53.794Z,26.10
2024-05-09T00:17:53.859Z,26.86
2024-05-09T00:18:54.074Z,26.37
2024-05-09T00:19:53.753Z,26.32
2024-05-09T00:20:53.756Z,26.32
2024-05-09T00:21:53.698Z,26.53
2024-05-09T00:22:53.723Z,26.16
2024-05-09T00:23:53.665Z,26.16
2024-05-09T00:24:53.704Z,26.26
2024-05-09T00:25:53.695Z,26.59
2024-05-09T00:26:53.621Z,26.53
2024-05-09T00:27:53.621Z,26.86
2024-05-09T00:28:53.649Z,26.53
2024-05-09T00:29:53.586Z,26.32
2024-05-09T00:30:53.617Z,26.37
2024-05-09T00:31:53.653Z,26.80
2024-05-09T00:32:53.583Z,26.69
2024-05-09T00:33:53.619Z,26.53
2024-05-09T00:34:53.570Z,26.86
2024-05-09T00:35:53.522Z,26.43
2024-05-09T00:36:53.552Z,26.69
2024-05-09T00:37:53.504Z,26.48
2024-05-09T00:38:53.475Z,25.62
2024-05-09T00:39:53.475Z,25.83
2024-05-09T00:40:53.526Z,26.37
2024-05-09T00:41:53.432Z,26.26
2024-05-09T00:42:53.470Z,26.32
2024-05-09T00:43:53.445Z,26.48
2024-05-09T00:44:53.398Z,26.43
2024-05-09T00:45:53.381Z,26.86
2024-05-09T00:46:53.462Z,26.75
2024-05-09T00:47:53.495Z,26.53
2024-05-09T00:48:53.444Z,26.37
2024-05-09T00:49:53.366Z,26.69
2024-05-09T00:50:53.359Z,26.05
2024-05-09T00:51:53.298Z,26.69
2024-05-09T00:52:53.358Z,26.00
2024-05-09T00:53:53.290Z,26.59
2024-05-09T00:54:53.288Z,26.00
2024-05-09T00:55:53.281Z,26.53
2024-05-09T00:56:53.238Z,26.48
2024-05-09T00:57:53.233Z,26.53
2024-05-09T00:58:53.241Z,26.48
2024-05-09T00:59:53.207Z,26.64
2024-05-09T01:00:53.334Z,26.48
2024-05-09T01:01:53.231Z,25.94
2024-05-09T01:02:53.366Z,26.75
2024-05-09T01:03:53.340Z,26.48
2024-05-09T01:04:53.297Z,26.64
2024-05-09T01:05:53.228Z,26.48
2024-05-09T01:06:53.165Z,26.05
2024-05-09T01:07:53.123Z,25.57
2024-05-09T01:08:53.084Z,26.26
2024-05-09T01:09:53.072Z,26.59
2024-05-09T01:10:53.273Z,26.05
2024-05-09T01:11:53.130Z,26.10
2024-05-09T01:12:53.070Z,26.21
2024-05-09T01:13:53.061Z,26.69
2024-05-09T01:14:53.244Z,26.10
2024-05-09T01:15:53.638Z,26.43
2024-05-09T01:16:53.042Z,26.10
2024-05-09T01:17:53.180Z,26.86
2024-05-09T01:18:53.150Z,26.26
2024-05-09T01:19:53.015Z,26.53
2024-05-09T01:20:52.959Z,26.80
2024-05-09T01:21:52.921Z,26.43
2024-05-09T01:22:52.985Z,26.48
2024-05-09T01:23:52.896Z,25.83
2024-05-09T01:24:53.002Z,26.00
2024-05-09T01:25:52.902Z,26.96
2024-05-09T01:26:53.286Z,26.64
2024-05-09T01:27:52.834Z,26.43
2024-05-09T01:28:52.852Z,26.80
2024-05-09T01:29:52.819Z,26.26
2024-05-09T01:30:52.829Z,26.32
2024-05-09T01:31:52.991Z,26.64
2024-05-09T01:32:52.945Z,26.64
2024-05-09T01:33:52.859Z,26.32
2024-05-09T01:34:52.763Z,26.26
2024-05-09T01:35:52.748Z,26.37
2024-05-09T01:36:52.756Z,26.69
2024-05-09T01:37:52.763Z,26.32
2024-05-09T01:38:52.724Z,26.53
2024-05-09T01:39:52.709Z,27.07
2024-05-09T01:40:52.709Z,26.43
2024-05-09T01:41:52.671Z,25.83
2024-05-09T01:42:52.697Z,26.48
2024-05-09T01:43:52.735Z,25.83
2024-05-09T01:44:52.657Z,26.16
2024-05-09T01:45:52.607Z,26.43
2024-05-09T01:46:52.638Z,26.16
2024-05-09T01:47:52.737Z,26.59
2024-05-09T01:48:52.663Z,26.37
2024-05-09T01:49:52.610Z,26.64
2024-05-09T01:50:52.593Z,25.78
2024-05-09T01:51:52.541Z,26.37
2024-05-09T01:52:52.515Z,26.21
2024-05-09T01:53:52.504Z,26.10
2024-05-09T01:54:52.544Z,26.32
2024-05-09T01:55:52.522Z,26.37
2024-05-09T01:56:52.474Z,26.64
2024-05-09T01:57:52.475Z,26.32
2024-05-09T01:58:52.513Z,26.10
2024-05-09T01:59:52.439Z,25.51
2024-05-09T02:00:52.611Z,25.73
2024-05-09T02:01:56.874Z,26.37
2024-05-09T02:02:53.569Z,26.32
2024-05-09T02:03:52.747Z,26.64
2024-05-09T02:04:53.169Z,26.80
2024-05-09T02:05:52.503Z,26.21
2024-05-09T02:06:52.366Z,26.80
2024-05-09T02:07:52.406Z,25.94
2024-05-09T02:08:52.312Z,25.94
2024-05-09T02:09:52.320Z,25.78
2024-05-09T02:10:52.405Z,26.21
2024-05-09T02:11:52.373Z,26.32
2024-05-09T02:12:52.305Z,26.59
2024-05-09T02:13:52.317Z,25.62
2024-05-09T02:14:52.263Z,26.26
2024-05-09T02:15:52.444Z,26.48
2024-05-09T02:16:52.273Z,26.26
2024-05-09T02:17:52.418Z,26.10
2024-05-09T02:18:52.390Z,26.43
2024-05-09T02:19:52.268Z,25.89
2024-05-09T02:20:52.290Z,26.05
2024-05-09T02:21:52.191Z,26.64
2024-05-09T02:22:52.162Z,26.43
2024-05-09T02:23:52.122Z,26.37
2024-05-09T02:24:52.150Z,26.69
2024-05-09T02:25:52.137Z,26.21
2024-05-09T02:26:52.096Z,26.21
2024-05-09T02:27:52.061Z,26.21
2024-05-09T02:28:52.081Z,26.21
2024-05-09T02:29:52.038Z,26.26
2024-05-09T02:30:52.092Z,26.16
2024-05-09T02:31:52.067Z,26.16
2024-05-09T02:32:52.209Z,26.37
2024-05-09T02:33:52.223Z,26.16
2024-05-09T02:34:52.001Z,26.48
2024-05-09T02:35:51.999Z,26.32
2024-05-09T02:36:51.982Z,26.59
2024-05-09T02:37:51.962Z,26.21
2024-05-09T02:38:51.951Z,26.75
2024-05-09T02:39:51.912Z,26.86
2024-05-09T02:40:51.935Z,26.32
2024-05-09T02:41:51.892Z,26.59
2024-05-09T02:42:51.907Z,25.51
2024-05-09T02:43:51.887Z,26.37
2024-05-09T02:44:51.970Z,26.10
2024-05-09T02:45:51.838Z,26.69
2024-05-09T02:46:51.854Z,26.59
2024-05-09T02:47:51.970Z,26.48
2024-05-09T02:48:51.953Z,26.00
2024-05-09T02:49:51.810Z,26.00
2024-05-09T02:50:51.810Z,26.80
2024-05-09T02:51:51.760Z,25.83
2024-05-09T02:52:51.748Z,26.43
2024-05-09T02:53:51.741Z,26.64
2024-05-09T02:54:51.741Z,26.53
2024-05-09T02:55:51.718Z,26.21
2024-05-09T02:56:51.698Z,26.05
2024-05-09T02:57:51.671Z,27.07
2024-05-09T02:58:51.713Z,26.48
2024-05-09T02:59:51.658Z,26.59
2024-05-09T03:00:51.723Z,26.16
2024-05-09T03:01:51.698Z,26.10
2024-05-09T03:02:51.734Z,26.75
2024-05-09T03:03:51.912Z,25.62
2024-05-09T03:04:51.678Z,25.51
2024-05-09T03:05:51.594Z,26.48
2024-05-09T03:06:51.536Z,26.26
2024-05-09T03:07:51.571Z,26.32
2024-05-09T03:08:51.556Z,26.05
2024-05-09T03:09:51.537Z,26.48
2024-05-09T03:10:51.560Z,26.64
2024-05-09T03:11:51.651Z,26.21
2024-05-09T03:12:51.506Z,26.37
2024-05-09T03:13:51.474Z,26.00
2024-05-09T03:14:51.415Z,26.64
2024-05-09T03:15:51.383Z,26.91
2024-05-09T03:16:51.443Z,26.10
2024-05-09T03:17:51.469Z,25.62
2024-05-09T03:18:51.594Z,26.43
2024-05-09T03:19:51.373Z,26.64
2024-05-09T03:20:51.350Z,26.32
2024-05-09T03:21:51.337Z,25.67
2024-05-09T03:22:54.052Z,26.16
2024-05-09T03:23:51.382Z,26.37
2024-05-09T03:24:51.303Z,26.16
2024-05-09T03:25:51.405Z,26.00
2024-05-09T03:26:51.245Z,26.53
2024-05-09T03:27:51.340Z,26.59
2024-05-09T03:28:51.229Z,25.94
2024-05-09T03:29:51.211Z,26.80
2024-05-09T03:30:51.273Z,25.57
2024-05-09T03:31:51.303Z,26.59
2024-05-09T03:32:52.001Z,25.89
2024-05-09T03:33:51.413Z,26.43
2024-05-09T03:34:51.280Z,25.73
2024-05-09T03:35:51.210Z,25.78
2024-05-09T03:36:51.190Z,26.21
2024-05-09T03:37:51.125Z,26.96
2024-05-09T03:38:51.097Z,26.00
2024-05-09T03:39:51.068Z,26.59
2024-05-09T03:40:51.447Z,26.16
2024-05-09T03:41:51.079Z,26.26
2024-05-09T03:42:51.106Z,26.59
2024-05-09T03:43:51.088Z,26.16
2024-05-09T03:44:51.026Z,26.43
2024-05-09T03:45:51.022Z,26.21
2024-05-09T03:46:51.083Z,25.78
2024-05-09T03:47:51.236Z,26.69
2024-05-09T03:48:51.131Z,26.05
2024-05-09T03:49:51.946Z,26.37
2024-05-09T03:50:50.996Z,26.91
2024-05-09T03:51:50.922Z,26.43
2024-05-09T03:52:50.959Z,26.53
2024-05-09T03:53:50.898Z,26.21
2024-05-09T03:54:50.942Z,26.37
2024-05-09T03:55:50.913Z,26.00
2024-05-09T03:56:50.859Z,26.10
2024-05-09T03:57:50.842Z,26.48
2024-05-09T03:58:50.877Z,27.07
2024-05-09T03:59:50.817Z,26.48
2024-05-09T04:00:50.865Z,26.16
2024-05-09T04:01:50.913Z,26.69
2024-05-09T04:02:51.122Z,25.67
2024-05-09T04:03:50.867Z,26.26
2024-05-09T04:04:51.252Z,26.64
2024-05-09T04:05:50.768Z,27.02
2024-05-09T04:06:50.782Z,26.43
2024-05-09T04:07:50.748Z,26.00
2024-05-09T04:08:50.734Z,26.86
2024-05-09T04:09:50.694Z,26.75
2024-05-09T04:10:50.736Z,25.67
2024-05-09T04:11:50.715Z,26.48
2024-05-09T04:12:50.693Z,26.59
2024-05-09T04:13:50.664Z,26.43
2024-05-09T04:14:50.628Z,26.37
2024-05-09T04:15:50.650Z,25.78
2024-05-09T04:16:50.628Z,26.32
2024-05-09T04:17:50.802Z,26.48
2024-05-09T04:18:50.753Z,26.59
2024-05-09T04:19:51.636Z,26.48
2024-05-09T04:20:51.526Z,26.75
2024-05-09T04:21:50.540Z,26.10
2024-05-09T04:22:50.570Z,26.32
2024-05-09T04:23:50.537Z,26.59
2024-05-09T04:24:50.528Z,26.26
2024-05-09T04:25:50.571Z,26.64
2024-05-09T04:26:50.471Z,26.43
2024-05-09T04:27:50.459Z,26.32
2024-05-09T04:28:50.481Z,26.21
2024-05-09T04:29:50.424Z,26.00
2024-05-09T04:30:50.447Z,26.48
2024-05-09T04:31:50.459Z,26.32
2024-05-09T04:32:50.507Z,26.53
2024-05-09T04:33:50.513Z,25.78
2024-05-09T04:34:50.422Z,26.43
2024-05-09T04:35:51.390Z,26.48
2024-05-09T04:36:51.253Z,25.41
2024-05-09T04:37:50.360Z,26.43
2024-05-09T04:38:50.342Z,26.69
2024-05-09T04:39:50.316Z,26.53
2024-05-09T04:40:50.322Z,26.37
2024-05-09T04:41:50.304Z,26.16
2024-05-09T04:42:50.313Z,26.00
2024-05-09T04:43:50.308Z,27.02
2024-05-09T04:44:50.240Z,26.26
2024-05-09T04:45:50.233Z,25.94
2024-05-09T04:46:50.303Z,26.26
2024-05-09T04:47:50.486Z,27.02
2024-05-09T04:48:50.313Z,26.59
2024-05-09T04:49:50.752Z,26.69
2024-05-09T04:50:50.892Z,26.43
2024-05-09T04:51:50.152Z,25.30
2024-05-09T04:52:50.201Z,26.26
2024-05-09T04:53:50.152Z,26.43
2024-05-09T04:54:50.140Z,26.26
2024-05-09T04:55:50.205Z,26.26
2024-05-09T04:56:50.096Z,25.62
2024-05-09T04:57:50.085Z,26.16
2024-05-09T04:58:50.076Z,26.16
2024-05-09T04:59:50.057Z,26.75
2024-05-09T05:00:50.186Z,26.43
2024-05-09T05:01:50.100Z,26.16
2024-05-09T05:02:50.102Z,26.80
2024-05-09T05:03:50.115Z,26.43
2024-05-09T05:04:50.124Z,26.32
2024-05-09T05:05:50.788Z,26.53
2024-05-09T05:06:50.948Z,26.32
2024-05-09T05:07:49.974Z,26.21
2024-05-09T05:08:49.934Z,26.64
2024-05-09T05:09:49.922Z,26.64
2024-05-09T05:10:50.191Z,26.00
2024-05-09T05:11:50.002Z,26.21
2024-05-09T05:12:49.915Z,26.48
2024-05-09T05:13:49.904Z,26.53
2024-05-09T05:14:49.874Z,26.48
2024-05-09T05:15:49.845Z,26.86
2024-05-09T05:16:49.892Z,26.43
2024-05-09T05:17:50.115Z,26.75
2024-05-09T05:18:49.966Z,26.48
2024-05-09T05:19:50.052Z,26.26
2024-05-09T05:20:50.022Z,26.48
2024-05-09T05:21:49.961Z,26.59
2024-05-09T05:22:50.064Z,26.26
2024-05-09T05:23:49.776Z,26.37
2024-05-09T05:24:49.768Z,26.43
2024-05-09T05:25:50.049Z,26.21
2024-05-09T05:26:49.709Z,26.00
2024-05-09T05:27:49.678Z,26.64
2024-05-09T05:28:49.712Z,26.69
2024-05-09T05:29:49.765Z,26.69
2024-05-09T05:30:49.980Z,26.86
2024-05-09T05:31:49.750Z,25.83
2024-05-09T05:32:49.881Z,26.43
2024-05-09T05:33:49.784Z,26.16
2024-05-09T05:34:49.633Z,26.32
2024-05-09T05:35:49.601Z,26.21
2024-05-09T05:36:50.366Z,26.43
2024-05-09T05:37:50.594Z,26.26
2024-05-09T05:38:49.736Z,26.16
2024-05-09T05:39:49.519Z,26.64
2024-05-09T05:40:49.653Z,26.00
2024-05-09T05:41:49.498Z,25.89
2024-05-09T05:42:49.542Z,26.32
2024-05-09T05:43:49.534Z,26.48
2024-05-09T05:44:49.470Z,26.10
2024-05-09T05:45:49.453Z,26.37
2024-05-09T05:46:49.483Z,26.75
2024-05-09T05:47:49.622Z,26.21
2024-05-09T05:48:49.638Z,26.86
2024-05-09T05:49:49.454Z,26.37
2024-05-09T05:50:49.416Z,26.32
2024-05-09T05:51:50.204Z,26.37
2024-05-09T05:52:50.380Z,25.83
2024-05-09T05:53:49.527Z,26.80
2024-05-09T05:54:49.337Z,26.43
2024-05-09T05:55:50.407Z,26.91
2024-05-09T05:56:50.235Z,26.32
2024-05-09T05:57:49.305Z,26.64
2024-05-09T05:58:49.343Z,26.69
2024-05-09T05:59:49.267Z,26.69
2024-05-09T06:00:49.312Z,26.64
2024-05-09T06:01:49.283Z,26.64
2024-05-09T06:02:49.523Z,26.80
2024-05-09T06:03:49.445Z,26.80
2024-05-09T06:04:49.381Z,26.53
2024-05-09T06:05:49.275Z,26.86
2024-05-09T06:06:49.612Z,26.26
2024-05-09T06:07:49.660Z,26.05
2024-05-09T06:08:49.312Z,26.53
2024-05-09T06:09:50.435Z,26.48
2024-05-09T06:10:49.255Z,26.26
2024-05-09T06:11:49.155Z,26.53
2024-05-09T06:12:49.106Z,26.43
2024-05-09T06:13:49.140Z,25.73
2024-05-09T06:14:49.102Z,27.02
2024-05-09T06:15:49.067Z,26.48
2024-05-09T06:16:49.066Z,26.32
2024-05-09T06:17:49.184Z,26.59
2024-05-09T06:18:49.360Z,26.48
2024-05-09T06:19:49.264Z,26.96
2024-05-09T06:20:49.048Z,26.59
2024-05-09T06:21:49.001Z,26.69
2024-05-09T06:22:49.801Z,26.48
2024-05-09T06:23:49.785Z,26.48
2024-05-09T06:24:49.056Z,26.48
2024-05-09T06:25:49.037Z,26.53
2024-05-09T06:26:48.915Z,26.00
2024-05-09T06:27:48.907Z,26.32
2024-05-09T06:28:48.928Z,26.69
2024-05-09T06:29:48.891Z,26.32
2024-05-09T06:30:48.868Z,26.80
2024-05-09T06:31:48.880Z,26.91
2024-05-09T06:32:48.980Z,26.69
2024-05-09T06:33:49.049Z,26.59
2024-05-09T06:34:48.942Z,27.02
2024-05-09T06:35:48.822Z,27.12
2024-05-09T06:36:48.787Z,26.86
2024-05-09T06:37:49.659Z,26.64
2024-05-09T06:38:48.805Z,26.32
2024-05-09T06:39:48.799Z,26.80
2024-05-09T06:40:48.791Z,26.69
2024-05-09T06:41:48.730Z,26.91
2024-05-09T06:42:48.711Z,26.69
2024-05-09T06:43:48.714Z,26.48
2024-05-09T06:44:48.715Z,26.69
2024-05-09T06:45:49.185Z,26.75
2024-05-09T06:46:48.731Z,26.69
2024-05-09T06:47:48.744Z,26.59
2024-05-09T06:48:49.100Z,26.48
2024-05-09T06:49:48.722Z,26.75
2024-05-09T06:50:48.782Z,26.80
2024-05-09T06:51:48.603Z,26.64
2024-05-09T06:52:49.282Z,26.69
2024-05-09T06:53:48.761Z,26.91
2024-05-09T06:54:48.555Z,26.86
2024-05-09T06:55:48.602Z,26.86
2024-05-09T06:56:48.534Z,26.64
2024-05-09T06:57:48.530Z,26.69
2024-05-09T06:58:48.562Z,26.80
2024-05-09T06:59:48.486Z,26.80
2024-05-09T07:00:48.563Z,26.86
2024-05-09T07:01:48.518Z,26.69
2024-05-09T07:02:48.532Z,26.80
2024-05-09T07:04:04.259Z,26.91
2024-05-09T07:04:48.497Z,26.64
2024-05-09T07:05:49.463Z,26.80
2024-05-09T07:06:48.407Z,26.86
2024-05-09T07:07:48.404Z,26.75
2024-05-09T07:08:48.800Z,26.96
2024-05-09T07:09:49.042Z,26.86
2024-05-09T07:10:48.539Z,26.91
2024-05-09T07:11:48.395Z,26.91
2024-05-09T07:12:48.324Z,26.96
2024-05-09T07:13:48.339Z,26.75
2024-05-09T07:14:48.344Z,26.91
2024-05-09T07:15:48.301Z,26.86
2024-05-09T07:16:48.394Z,26.96
2024-05-09T07:17:48.548Z,26.91
2024-05-09T07:18:48.434Z,27.02
2024-05-09T07:19:48.387Z,26.80
2024-05-09T07:20:49.330Z,26.86
2024-05-09T07:21:48.353Z,26.75
2024-05-09T07:22:48.257Z,27.12
2024-05-09T07:23:48.426Z,26.75
2024-05-09T07:24:48.452Z,26.86
2024-05-09T07:25:48.643Z,26.96
2024-05-09T07:26:48.612Z,26.80
2024-05-09T07:27:48.150Z,26.96
2024-05-09T07:28:48.136Z,27.02
2024-05-09T07:29:48.200Z,27.12
2024-05-09T07:30:48.241Z,26.86
2024-05-09T07:31:48.118Z,26.75
2024-05-09T07:32:48.317Z,27.02
2024-05-09T07:33:48.129Z,26.75
2024-05-09T07:34:48.067Z,26.75
2024-05-09T07:35:48.155Z,27.07
2024-05-09T07:36:48.028Z,26.86
2024-05-09T07:37:48.094Z,27.02
2024-05-09T07:38:48.046Z,26.91
2024-05-09T07:39:48.806Z,26.96
2024-05-09T07:40:49.135Z,26.91
2024-05-09T07:41:48.616Z,26.80
2024-05-09T07:42:47.933Z,27.02
2024-05-09T07:43:47.982Z,26.96
2024-05-09T07:44:47.907Z,26.96
2024-05-09T07:45:53.106Z,26.69
2024-05-09T07:47:48.781Z,26.96
2024-05-09T07:49:13.377Z,26.91
2024-05-09T07:51:32.612Z,26.96
2024-05-09T07:53:17.208Z,27.07
2024-05-09T07:53:34.811Z,26.96
2024-05-09T07:53:52.166Z,27.07
2024-05-09T07:54:49.695Z,26.86
2024-05-09T07:55:48.833Z,26.96
2024-05-09T07:56:48.754Z,26.96
2024-05-09T07:57:48.677Z,26.96
2024-05-09T07:58:47.772Z,27.02
2024-05-09T07:59:47.729Z,26.91
2024-05-09T08:00:47.761Z,26.96
2024-05-09T08:01:47.836Z,26.96
2024-05-09T08:02:47.757Z,26.96
2024-05-09T08:03:47.845Z,26.96
2024-05-09T08:04:47.718Z,26.91
2024-05-09T08:05:47.687Z,27.02
2024-05-09T08:06:47.708Z,26.96
2024-05-09T08:07:47.619Z,27.02
2024-05-09T08:08:47.647Z,27.18
2024-05-09T08:09:47.759Z,27.02
2024-05-09T08:10:48.218Z,27.02
2024-05-09T08:11:47.588Z,27.12
2024-05-09T08:12:47.585Z,27.07
2024-05-09T08:13:47.620Z,26.96
2024-05-09T08:14:47.520Z,27.07
2024-05-09T08:15:48.217Z,26.86
2024-05-09T08:16:47.502Z,27.02
2024-05-09T08:17:47.582Z,27.02
2024-05-09T08:18:47.677Z,27.02
2024-05-09T08:19:47.488Z,26.96
2024-05-09T08:20:47.434Z,27.12
2024-05-09T08:21:47.483Z,27.02
2024-05-09T08:22:47.461Z,27.07
2024-05-09T08:23:47.439Z,27.07
2024-05-09T08:24:47.417Z,27.02
2024-05-09T08:25:48.215Z,27.07
2024-05-09T08:26:48.346Z,27.07
2024-05-09T08:27:47.449Z,27.02
2024-05-09T08:28:47.324Z,27.12
2024-05-09T08:29:48.297Z,27.12
2024-05-09T08:30:47.589Z,27.07
2024-05-09T08:31:47.367Z,27.12
2024-05-09T08:32:47.400Z,27.07
2024-05-09T08:33:47.663Z,27.07
2024-05-09T08:34:47.299Z,27.07
2024-05-09T08:35:47.247Z,27.02
2024-05-09T08:36:47.217Z,27.07
2024-05-09T08:37:47.279Z,27.18
2024-05-09T08:38:47.198Z,27.12
2024-05-09T08:39:47.233Z,27.12
2024-05-09T08:40:48.228Z,27.18
2024-05-09T08:41:47.701Z,27.07
2024-05-09T08:42:47.230Z,27.12
2024-05-09T08:43:47.142Z,27.07
2024-05-09T08:44:47.213Z,27.07
2024-05-09T08:45:47.537Z,27.12
2024-05-09T08:46:47.090Z,27.07
2024-05-09T08:47:47.229Z,27.07
2024-05-09T08:48:47.172Z,27.12
2024-05-09T08:49:47.130Z,27.02
2024-05-09T08:50:47.115Z,27.18
2024-05-09T08:51:47.769Z,27.12
2024-05-09T08:52:47.176Z,27.07
2024-05-09T08:53:47.029Z,27.07
2024-05-09T08:54:47.205Z,27.07
2024-05-09T08:55:46.987Z,27.02
2024-05-09T08:56:46.992Z,27.12
2024-05-09T08:57:47.051Z,27.12
2024-05-09T08:58:46.969Z,27.07
2024-05-09T08:59:46.923Z,27.07
2024-05-09T09:00:47.254Z,27.12
2024-05-09T09:01:47.110Z,27.07
2024-05-09T09:02:46.922Z,27.07
2024-05-09T09:03:46.987Z,27.07
2024-05-09T09:04:46.957Z,27.02
2024-05-09T09:05:46.896Z,27.07
2024-05-09T09:06:46.891Z,27.02
2024-05-09T09:07:46.831Z,27.12
2024-05-09T09:08:46.877Z,27.02
2024-05-09T09:09:46.978Z,27.18
2024-05-09T09:10:46.890Z,27.12
2024-05-09T09:11:46.817Z,27.12
2024-05-09T09:12:46.767Z,27.12
2024-05-09T09:13:46.760Z,27.18
2024-05-09T09:14:46.734Z,27.07
2024-05-09T09:15:46.754Z,27.12
2024-05-09T09:16:46.709Z,27.02
2024-05-09T09:17:46.740Z,27.07
2024-05-09T09:18:47.008Z,27.07
2024-05-09T09:19:46.728Z,27.07
2024-05-09T09:20:46.839Z,27.07
2024-05-09T09:21:46.673Z,27.12
2024-05-09T09:22:46.619Z,27.07
2024-05-09T09:23:46.626Z,27.12
2024-05-09T09:24:46.706Z,27.07
2024-05-09T09:25:46.577Z,27.07
2024-05-09T09:26:46.584Z,27.18
2024-05-09T09:27:46.860Z,27.02
2024-05-09T09:28:46.568Z,27.12
2024-05-09T09:29:46.528Z,27.02
2024-05-09T09:30:46.593Z,27.12
2024-05-09T09:31:46.509Z,27.07
2024-05-09T09:32:46.595Z,27.18
2024-05-09T09:33:46.750Z,27.02
2024-05-09T09:34:46.522Z,27.07
2024-05-09T09:35:46.452Z,27.07
2024-05-09T09:36:46.499Z,27.12
2024-05-09T09:37:46.431Z,27.12
2024-05-09T09:38:46.439Z,27.07
2024-05-09T09:39:49.109Z,27.23
2024-05-09T09:40:49.248Z,27.12
2024-05-09T09:41:46.397Z,27.12
2024-05-09T09:42:46.435Z,27.07
2024-05-09T09:43:46.459Z,27.07
2024-05-09T09:44:54.582Z,27.12
2024-05-09T09:45:47.370Z,26.96
2024-05-09T09:46:46.355Z,27.12
2024-05-09T09:47:46.466Z,27.07
2024-05-09T09:48:46.420Z,27.07
2024-05-09T09:49:46.337Z,27.02
2024-05-09T09:50:46.272Z,27.12
2024-05-09T09:51:46.265Z,27.07
2024-05-09T09:52:46.245Z,27.07
2024-05-09T09:53:46.238Z,27.12
2024-05-09T09:54:46.243Z,27.02
2024-05-09T09:55:46.202Z,27.18
2024-05-09T09:56:46.222Z,27.18
2024-05-09T09:57:46.604Z,27.23
2024-05-09T09:58:46.454Z,27.07
2024-05-09T09:59:46.266Z,27.07
2024-05-09T10:00:46.384Z,27.07
2024-05-09T10:01:46.167Z,27.12
2024-05-09T10:02:46.142Z,27.07
2024-05-09T10:03:46.317Z,27.12
2024-05-09T10:04:46.188Z,27.18
2024-05-09T10:05:47.418Z,27.02
2024-05-09T10:06:46.110Z,27.12
2024-05-09T10:07:46.101Z,27.07
2024-05-09T10:08:46.061Z,27.07
2024-05-09T10:09:46.081Z,27.07
2024-05-09T10:10:46.475Z,27.12
2024-05-09T10:11:51.783Z,27.12
2024-05-09T10:12:47.003Z,27.07
2024-05-09T10:13:46.083Z,27.07
2024-05-09T10:14:46.459Z,27.12
2024-05-09T10:15:46.361Z,27.07
2024-05-09T10:16:45.930Z,27.07
2024-05-09T10:17:46.169Z,27.07
2024-05-09T10:18:46.088Z,27.07
2024-05-09T10:19:46.671Z,27.12
2024-05-09T10:20:46.217Z,27.12
2024-05-09T10:21:45.892Z,27.18
2024-05-09T10:22:45.878Z,27.07
2024-05-09T10:23:45.850Z,27.07
2024-05-09T10:24:45.853Z,27.12
2024-05-09T10:25:45.824Z,27.02
2024-05-09T10:26:45.820Z,27.02
2024-05-09T10:27:45.802Z,27.07
2024-05-09T10:28:45.785Z,27.07
2024-05-09T10:29:46.470Z,27.07
2024-05-09T10:30:46.706Z,27.12
2024-05-09T10:31:46.044Z,27.02
2024-05-09T10:32:45.943Z,27.07
2024-05-09T10:33:46.055Z,26.91
2024-05-09T10:34:45.725Z,27.02
2024-05-09T10:35:45.699Z,27.12
2024-05-09T10:36:45.730Z,27.07
2024-05-09T10:37:46.663Z,27.07
2024-05-09T10:38:45.657Z,27.07
2024-05-09T10:39:45.688Z,27.18
2024-05-09T10:40:46.460Z,27.12
2024-05-09T10:41:45.604Z,27.07
2024-05-09T10:42:45.701Z,27.12
2024-05-09T10:43:45.614Z,27.07
2024-05-09T10:44:45.707Z,27.12
2024-05-09T10:45:45.771Z,27.02
2024-05-09T10:46:45.565Z,27.12
2024-05-09T10:47:45.746Z,27.07
2024-05-09T10:48:45.652Z,27.07
2024-05-09T10:49:45.538Z,27.07
2024-05-09T10:50:45.546Z,27.07
2024-05-09T10:51:46.002Z,27.07
2024-05-09T10:52:45.479Z,27.02
2024-05-09T10:53:45.509Z,27.12
2024-05-09T10:54:45.500Z,27.02
2024-05-09T10:55:45.429Z,27.07
2024-05-09T10:56:46.157Z,27.07
2024-05-09T10:57:45.456Z,27.02
2024-05-09T10:58:46.267Z,27.07
2024-05-09T10:59:46.288Z,27.07
2024-05-09T11:00:45.450Z,27.12
2024-05-09T11:01:45.571Z,27.07
2024-05-09T11:02:45.461Z,27.07
2024-05-09T11:03:45.604Z,27.07
2024-05-09T11:04:45.426Z,27.07
2024-05-09T11:05:45.304Z,27.02
2024-05-09T11:06:45.359Z,27.07
2024-05-09T11:07:46.052Z,27.07
2024-05-09T11:08:45.273Z,27.02
2024-05-09T11:09:46.044Z,27.07
2024-05-09T11:10:45.395Z,27.07
2024-05-09T11:11:45.330Z,27.07
2024-05-09T11:12:45.241Z,27.07
2024-05-09T11:13:45.219Z,27.07
2024-05-09T11:14:45.214Z,27.12
2024-05-09T11:15:45.881Z,27.12
2024-05-09T11:16:45.230Z,27.07
2024-05-09T11:17:45.212Z,27.12
2024-05-09T11:18:45.391Z,27.07
2024-05-09T11:19:45.186Z,27.12
2024-05-09T11:20:45.189Z,27.07
2024-05-09T11:21:45.194Z,27.12
2024-05-09T11:22:45.101Z,27.07
2024-05-09T11:23:45.065Z,27.07
2024-05-09T11:24:45.316Z,27.12
2024-05-09T11:25:45.076Z,27.12
2024-05-09T11:26:45.059Z,27.12
2024-05-09T11:27:45.061Z,27.02
2024-05-09T11:28:45.021Z,27.07
2024-05-09T11:29:45.380Z,27.07
2024-05-09T11:30:45.504Z,27.12
2024-05-09T11:31:45.556Z,27.07
2024-05-09T11:32:45.151Z,27.07
2024-05-09T11:33:45.073Z,27.12
2024-05-09T11:34:44.964Z,27.02
2024-05-09T11:35:45.535Z,27.07
2024-05-09T11:36:44.974Z,27.07
2024-05-09T11:37:44.946Z,27.07
2024-05-09T11:38:44.896Z,27.07
2024-05-09T11:39:44.885Z,27.07
2024-05-09T11:40:44.913Z,27.12
2024-05-09T11:41:44.867Z,27.12
2024-05-09T11:42:44.986Z,27.12
2024-05-09T11:43:44.831Z,27.07
2024-05-09T11:44:44.806Z,27.18
2024-05-09T11:45:45.684Z,27.07
2024-05-09T11:46:45.806Z,27.07
2024-05-09T11:47:45.831Z,27.07
2024-05-09T11:48:44.897Z,27.07
2024-05-09T11:49:44.794Z,27.07
2024-05-09T11:50:44.736Z,27.12
2024-05-09T11:51:44.771Z,27.07
2024-05-09T11:52:44.759Z,27.02
2024-05-09T11:53:44.703Z,27.07
2024-05-09T11:54:44.707Z,27.07
2024-05-09T11:55:44.673Z,27.12
2024-05-09T11:56:44.678Z,27.12
2024-05-09T11:57:44.716Z,27.07
2024-05-09T11:58:44.627Z,27.07
2024-05-09T11:59:44.620Z,27.07
2024-05-09T12:00:44.763Z,27.07
2024-05-09T12:01:44.824Z,27.12
2024-05-09T12:02:44.583Z,27.07
2024-05-09T12:03:44.781Z,27.07
2024-05-09T12:04:44.838Z,27.12
2024-05-09T12:05:44.721Z,27.12
2024-05-09T12:06:44.564Z,27.12
2024-05-09T12:07:44.581Z,27.12
2024-05-09T12:08:44.502Z,27.07
2024-05-09T12:09:44.534Z,27.12
2024-05-09T12:10:44.577Z,27.12
2024-05-09T12:11:44.499Z,27.07
2024-05-09T12:12:44.513Z,27.07
2024-05-09T12:13:44.446Z,27.07
2024-05-09T12:14:44.454Z,27.07
2024-05-09T12:15:44.455Z,27.07
2024-05-09T12:16:45.334Z,27.07
2024-05-09T12:17:45.690Z,27.12
2024-05-09T12:18:44.461Z,27.07
2024-05-09T12:19:44.374Z,27.12
2024-05-09T12:20:44.394Z,27.12
2024-05-09T12:21:44.387Z,27.12
2024-05-09T12:22:44.335Z,27.07
2024-05-09T12:23:44.332Z,27.07
2024-05-09T12:24:44.325Z,27.12
2024-05-09T12:25:44.287Z,27.12
2024-05-09T12:26:44.321Z,27.07
2024-05-09T12:27:44.296Z,27.07
2024-05-09T12:28:44.293Z,27.12
2024-05-09T12:29:44.343Z,27.02
2024-05-09T12:30:44.264Z,27.07
2024-05-09T12:31:44.470Z,27.07
2024-05-09T12:32:45.344Z,27.07
2024-05-09T12:33:44.317Z,27.12
2024-05-09T12:34:44.239Z,27.12
2024-05-09T12:35:46.610Z,27.07
2024-05-09T12:36:44.179Z,27.07
2024-05-09T12:37:44.131Z,27.12
2024-05-09T12:38:44.145Z,26.96
2024-05-09T12:39:44.149Z,27.12
2024-05-09T12:40:44.158Z,27.12
2024-05-09T12:41:44.125Z,27.12
2024-05-09T12:42:44.072Z,27.12
2024-05-09T12:43:44.103Z,27.07
2024-05-09T12:44:44.151Z,27.18
2024-05-09T12:45:44.069Z,27.12
2024-05-09T12:46:44.388Z,27.02
2024-05-09T12:47:44.473Z,27.12
2024-05-09T12:48:44.225Z,27.12
2024-05-09T12:49:44.240Z,27.12
2024-05-09T12:50:44.529Z,27.02
2024-05-09T12:51:43.995Z,27.07
2024-05-09T12:52:44.430Z,27.07
2024-05-09T12:53:44.483Z,27.12
2024-05-09T12:54:44.673Z,27.07